Busselton Regional Airport

Airport
ICAO code: 
YBLN
IATA Code: 
BQB
Summary
ICAO Region: 
APAC
Territory: 
Location: 
Brusselton, Western Australia
Serving: 
Brusselton
Elevation: 
55 ft
Coordinates: 
Aerial View: 
33° 41' 13.999" S, 115° 24' 1.001" E
Metar
Observation
YBLN 052100Z AUTO 14011KT 9999 // OVC026 16/12 Q1018 RF00.0/000.0
Station
Busselton Airport
Date/Time
2021-12-05 21:00:00
Wind direction
140°
Wind speed
11 kts
Lowest cloud amount
overcast
Temperature
16°C
Dew point
12°C
Humidity
77%
QNH
1018 hPa
Weather condition
n/a

Runways

Designator Length Width Surface Rops
3/21 1800 30 ASP No/No
Airport map: 
Aerial View: 

SKYbrary Partners:

Safety knowledge contributed by: